createdAt,value
2022-08-17T00:00:16.575Z,263.17098
2022-08-17T00:05:46.551Z,252
2022-08-17T00:10:48.622Z,253.54774
2022-08-17T00:15:50.496Z,230.51163
2022-08-17T00:20:52.135Z,235.94313
2022-08-17T00:25:53.595Z,235.94313
2022-08-17T00:30:55.110Z,240.15385
2022-08-17T00:35:57.086Z,234.56604
2022-08-17T00:40:59.061Z,231.85047
2022-08-17T00:46:00.880Z,233.20188
2022-08-17T00:51:02.396Z,222.73303
2022-08-17T00:56:03.871Z,212.99563
2022-08-17T01:01:05.437Z,202.82353
2022-08-17T01:06:07.204Z,196.45902
2022-08-17T01:11:08.778Z,193.39271
2022-08-17T01:16:10.217Z,192.3871
2022-08-17T01:21:11.671Z,191.38956
2022-08-17T01:26:13.294Z,187.47826
2022-08-17T01:31:14.813Z,187.47826
2022-08-17T01:36:16.616Z,189.41833
2022-08-17T01:41:18.044Z,191.38956
2022-08-17T01:46:19.592Z,176.45283
2022-08-17T01:51:21.584Z,159.38462
2022-08-17T01:56:23.149Z,148.65116
2022-08-17T02:01:24.721Z,133.53846
2022-08-17T02:06:28.157Z,123.06977
2022-08-17T02:11:30.254Z,120.5043
2022-08-17T02:16:37.441Z,122.03468
2022-08-17T02:21:39.932Z,122.03468
2022-08-17T02:26:41.494Z,122.55072
2022-08-17T02:31:43.017Z,123.06977
2022-08-17T02:36:44.781Z,123.06977
2022-08-17T02:41:46.193Z,123.06977
2022-08-17T02:46:47.874Z,122.55072
2022-08-17T02:51:49.619Z,122.03468
2022-08-17T02:56:51.198Z,126.24852
2022-08-17T03:01:52.799Z,130.10272
2022-08-17T03:06:54.666Z,131.23404
2022-08-17T03:11:56.144Z,135.90031
2022-08-17T03:16:57.732Z,141.4359
2022-08-17T03:21:59.315Z,138.93671
2022-08-17T03:27:00.892Z,138.32177
2022-08-17T03:32:02.372Z,139.55556
2022-08-17T03:37:04.208Z,139.55556
2022-08-17T03:42:05.743Z,138.93671
2022-08-17T03:47:07.597Z,135.30435
2022-08-17T03:52:09.746Z,132.95706
2022-08-17T03:57:11.348Z,131.23404
2022-08-17T04:02:13.239Z,130.66667
2022-08-17T04:07:15.357Z,130.10272
2022-08-17T04:12:17.284Z,129.54217
2022-08-17T04:17:19.002Z,128.98498
2022-08-17T04:22:30.847Z,128.98498
2022-08-17T04:27:35.642Z,128.98498
2022-08-17T04:33:04.698Z,128.43114
2022-08-17T04:38:09.523Z,132.95706
2022-08-17T04:43:11.392Z,130.66667
2022-08-17T04:48:13.437Z,130.66667
2022-08-17T04:53:15.112Z,128.43114
2022-08-17T04:58:16.881Z,125.71091
2022-08-17T05:03:18.825Z,126.78932
2022-08-17T05:08:20.918Z,127.33333
2022-08-17T05:13:22.838Z,125.17647
2022-08-17T05:18:24.815Z,125.71091
2022-08-17T05:23:26.853Z,123.59184
2022-08-17T05:28:37.006Z,121.01149
2022-08-17T05:33:44.305Z,120.5043
2022-08-17T05:38:47.793Z,117.52113
2022-08-17T05:43:51.877Z,117.03371
2022-08-17T05:48:57.631Z,117.03371
2022-08-17T05:53:59.388Z,124.64516
2022-08-17T05:59:01.168Z,128.98498
2022-08-17T06:04:03.000Z,132.3792
2022-08-17T06:09:05.936Z,144.65147
2022-08-17T06:14:07.995Z,154.9589
2022-08-17T06:19:09.889Z,154.23891
2022-08-17T06:24:11.879Z,160.90141
2022-08-17T06:29:18.804Z,170.47059
2022-08-17T06:34:20.875Z,180.01533
2022-08-17T06:39:22.971Z,187.47826
2022-08-17T06:44:49.753Z,206.12766
2022-08-17T06:49:55.387Z,221.47748
2022-08-17T06:54:57.722Z,244.4878
2022-08-17T06:59:59.478Z,275.1828
2022-08-17T07:05:01.113Z,300.06936
2022-08-17T07:10:03.072Z,296
2022-08-17T07:15:04.526Z,310.66667
2022-08-17T07:20:06.320Z,317.33333
2022-08-17T07:25:08.160Z,346.61438
2022-08-17T07:30:10.831Z,292.0226
2022-08-17T07:35:12.945Z,363.04762
2022-08-17T07:40:17.436Z,351.94702
2022-08-17T07:45:19.065Z,403.70149
2022-08-17T07:50:23.988Z,606.36559
2022-08-17T07:55:27.451Z,677.33333
2022-08-17T08:00:32.813Z,921.77778
2022-08-17T08:05:49.391Z,877.33333
2022-08-17T08:10:53.044Z,988.0678
2022-08-17T08:15:54.953Z,1254.6383
2022-08-17T08:20:56.790Z,1227.33333
2022-08-17T08:25:58.803Z,988.0678
2022-08-17T08:31:00.284Z,668.70588
2022-08-17T08:36:02.092Z,836.75362
2022-08-17T08:41:04.251Z,1523.48718
2022-08-17T08:46:06.255Z,1869
2022-08-17T08:51:08.581Z,1523.48718
2022-08-17T08:56:12.704Z,1227.33333
2022-08-17T09:01:16.935Z,849.88235
2022-08-17T09:06:37.378Z,1044
2022-08-17T09:12:01.398Z,1024.70175
2022-08-17T09:17:05.182Z,1523.48718
2022-08-17T09:22:06.953Z,1565.05263
2022-08-17T09:27:08.909Z,2068.13793
2022-08-17T09:32:10.673Z,2068.13793
2022-08-17T09:37:12.147Z,2408
2022-08-17T09:42:14.046Z,2510.66667
2022-08-17T09:47:15.834Z,2144
2022-08-17T09:52:18.017Z,1931.09677
2022-08-17T09:57:29.803Z,2313.23077
2022-08-17T10:02:32.051Z,2068.13793
2022-08-17T10:07:34.017Z,1869
2022-08-17T10:12:35.759Z,1810.66667
2022-08-17T10:17:39.714Z,1523.48718
2022-08-17T10:22:41.127Z,1344
2022-08-17T10:27:43.880Z,1344
2022-08-17T10:32:45.907Z,1446.43902
2022-08-17T10:37:47.395Z,1655.11111
2022-08-17T10:42:49.127Z,1523.48718
2022-08-17T10:47:55.585Z,1869
2022-08-17T10:52:58.370Z,1869
2022-08-17T10:57:59.855Z,1655.11111
2022-08-17T11:03:01.303Z,1312.88889
2022-08-17T11:08:02.777Z,1044
2022-08-17T11:13:06.485Z,1084.74074
2022-08-17T11:18:07.952Z,1106.26415
2022-08-17T11:23:09.405Z,1176
2022-08-17T11:28:11.294Z,1254.6383
2022-08-17T11:33:12.900Z,1024.70175
2022-08-17T11:38:16.456Z,1106.26415
2022-08-17T11:43:19.169Z,970.66667
2022-08-17T11:48:28.277Z,1006.06897
2022-08-17T11:53:30.346Z,1084.74074
2022-08-17T11:58:31.892Z,1044
2022-08-17T12:03:33.558Z,1312.88889
2022-08-17T12:08:35.297Z,1446.43902
2022-08-17T12:13:39.821Z,1312.88889
2022-08-17T12:18:42.162Z,1704
2022-08-17T12:23:44.278Z,1608.86486
2022-08-17T12:28:46.063Z,1446.43902
2022-08-17T12:33:47.868Z,1484
2022-08-17T12:38:49.489Z,1484
2022-08-17T12:43:51.332Z,1565.05263
2022-08-17T12:48:59.201Z,1608.86486
2022-08-17T12:54:01.322Z,1869
2022-08-17T12:59:03.180Z,1484
2022-08-17T13:04:05.024Z,1704
2022-08-17T13:09:06.769Z,2068.13793
2022-08-17T13:14:08.992Z,2144
2022-08-17T13:19:10.957Z,1565.05263
2022-08-17T13:24:13.012Z,1565.05263
2022-08-17T13:29:15.110Z,1704
2022-08-17T13:34:16.744Z,1704
2022-08-17T13:39:20.227Z,1608.86486
2022-08-17T13:44:22.588Z,1608.86486
2022-08-17T13:49:24.489Z,1997.33333
2022-08-17T13:54:43.286Z,1810.66667
2022-08-17T13:59:52.886Z,2225.48148
2022-08-17T14:04:56.878Z,2408
2022-08-17T14:09:58.835Z,2144
2022-08-17T14:15:00.861Z,1997.33333
2022-08-17T14:20:02.512Z,1755.76471
2022-08-17T14:25:04.021Z,1869
2022-08-17T14:30:05.921Z,1869
2022-08-17T14:35:07.594Z,1608.86486
2022-08-17T14:40:09.294Z,1484
2022-08-17T14:45:32.142Z,1608.86486
2022-08-17T14:50:35.503Z,1810.66667
2022-08-17T14:55:37.350Z,1484
2022-08-17T15:00:38.984Z,1655.11111
2022-08-17T15:05:40.782Z,1312.88889
2022-08-17T15:10:42.357Z,1655.11111
2022-08-17T15:15:44.112Z,1755.76471
2022-08-17T15:20:45.852Z,1755.76471
2022-08-17T15:25:47.470Z,1376.55814
2022-08-17T15:30:49.017Z,1410.66667
2022-08-17T15:35:50.483Z,1704
2022-08-17T15:40:51.916Z,1484
2022-08-17T15:45:59.816Z,1283.13043
2022-08-17T15:51:01.988Z,970.66667
2022-08-17T15:56:03.730Z,1084.74074
2022-08-17T16:01:17.028Z,1024.70175
2022-08-17T16:06:21.394Z,668.70588
2022-08-17T16:11:23.153Z,695.21951
2022-08-17T16:16:24.798Z,677.33333
2022-08-17T16:21:26.612Z,579.05155
2022-08-17T16:26:28.411Z,453.09091
2022-08-17T16:31:30.302Z,403.70149
2022-08-17T16:36:31.837Z,470.49573
2022-08-17T16:41:33.884Z,484.35088
2022-08-17T16:46:35.871Z,421.51938
2022-08-17T16:51:37.641Z,380.87943
2022-08-17T16:56:39.380Z,317.33333
2022-08-17T17:01:41.361Z,368.82759
2022-08-17T17:06:42.763Z,344
2022-08-17T17:11:44.439Z,304.23392
2022-08-17T17:16:46.453Z,302.13953
2022-08-17T17:21:48.006Z,324.24691
2022-08-17T17:26:49.476Z,357.42282
2022-08-17T17:31:51.272Z,365.91781
2022-08-17T17:36:52.837Z,354.66667
2022-08-17T17:41:54.373Z,341.41935
2022-08-17T17:46:56.295Z,346.61438
2022-08-17T17:52:11.126Z,374.76923
2022-08-17T17:57:14.556Z,396.94118
2022-08-17T18:02:16.627Z,403.70149
2022-08-17T18:07:18.409Z,440.77419
2022-08-17T18:12:20.191Z,475.03448
2022-08-17T18:17:22.352Z,479.65217
2022-08-17T18:22:24.224Z,407.15789
2022-08-17T18:27:25.861Z,444.81301
2022-08-17T18:32:27.617Z,461.64706
2022-08-17T18:37:29.016Z,453.09091
2022-08-17T18:42:31.011Z,417.84615
2022-08-17T18:47:33.305Z,425.25
2022-08-17T18:52:34.854Z,384
2022-08-17T18:57:36.932Z,363.04762
2022-08-17T19:02:45.583Z,333.87342
2022-08-17T19:07:47.826Z,341.41935
2022-08-17T19:12:49.339Z,319.60976
2022-08-17T19:17:51.321Z,336.35669
2022-08-17T19:22:53.318Z,336.35669
2022-08-17T19:27:57.882Z,331.42138
2022-08-17T19:33:00.141Z,344
2022-08-17T19:38:01.986Z,360.21622
2022-08-17T19:43:03.774Z,354.66667
2022-08-17T19:48:05.861Z,336.35669
2022-08-17T19:53:07.726Z,354.66667
2022-08-17T19:58:09.501Z,371.77778
2022-08-17T20:03:16.405Z,371.77778
2022-08-17T20:08:18.841Z,380.87943
2022-08-17T20:13:33.497Z,374.76923
2022-08-17T20:18:36.087Z,371.77778
2022-08-17T20:23:37.529Z,365.91781
2022-08-17T20:28:39.175Z,357.42282
2022-08-17T20:33:40.871Z,354.66667
2022-08-17T20:38:42.315Z,338.87179
2022-08-17T20:43:43.718Z,336.35669
2022-08-17T20:48:45.630Z,338.87179
2022-08-17T20:53:47.564Z,317.33333
2022-08-17T20:58:49.110Z,306.35294
2022-08-17T21:03:51.865Z,298.02299
2022-08-17T21:08:53.740Z,315.08434
2022-08-17T21:13:55.819Z,324.24691
2022-08-17T21:18:57.830Z,333.87342
2022-08-17T21:23:59.303Z,329
2022-08-17T21:29:01.683Z,324.24691
2022-08-17T21:34:32.739Z,329
2022-08-17T21:39:34.410Z,349.26316
2022-08-17T21:44:36.223Z,344
2022-08-17T21:49:38.184Z,336.35669
2022-08-17T21:54:39.934Z,354.66667
2022-08-17T21:59:41.516Z,333.87342
2022-08-17T22:04:43.145Z,321.91411
2022-08-17T22:09:44.728Z,308.49704
2022-08-17T22:14:52.606Z,302.13953
2022-08-17T22:19:55.996Z,276.97297
2022-08-17T22:24:57.848Z,280.61202
2022-08-17T22:29:59.646Z,275.1828
2022-08-17T22:35:01.566Z,280.61202
2022-08-17T22:40:03.153Z,286.22222
2022-08-17T22:45:05.008Z,321.91411
2022-08-17T22:50:06.980Z,360.21622
2022-08-17T22:55:09.146Z,365.91781
2022-08-17T23:00:11.843Z,344
2022-08-17T23:05:14.355Z,331.42138
2022-08-17T23:10:16.145Z,329
2022-08-17T23:15:17.980Z,331.42138
2022-08-17T23:20:20.117Z,338.87179
2022-08-17T23:25:21.765Z,346.61438
2022-08-17T23:30:23.560Z,344
2022-08-17T23:35:39.082Z,338.87179
2022-08-17T23:40:42.194Z,354.66667
2022-08-17T23:45:43.663Z,351.94702
2022-08-17T23:50:45.768Z,374.76923
2022-08-17T23:55:47.536Z,365.91781
